sensor_id;sensor_type;location;lat;lon;timestamp;P1;durP1;ratioP1;P2;durP2;ratioP2
6809;SDS011;3443;48.812;9.112;2024-02-23T00:01:43;0.88;;;0.10;;
6809;SDS011;3443;48.812;9.112;2024-02-23T00:04:09;0.20;;;0.10;;
6809;SDS011;3443;48.812;9.112;2024-02-23T00:06:35;0.10;;;0.10;;
6809;SDS011;3443;48.812;9.112;2024-02-23T00:09:00;0.20;;;0.10;;
6809;SDS011;3443;48.812;9.112;2024-02-23T00:11:26;0.35;;;0.10;;
6809;SDS011;3443;48.812;9.112;2024-02-23T00:13:53;0.20;;;0.20;;
6809;SDS011;3443;48.812;9.112;2024-02-23T00:16:19;0.20;;;0.10;;
6809;SDS011;3443;48.812;9.112;2024-02-23T00:18:44;0.77;;;0.10;;
6809;SDS011;3443;48.812;9.112;2024-02-23T00:21:10;0.47;;;0.20;;
6809;SDS011;3443;48.812;9.112;2024-02-23T00:23:36;0.28;;;0.10;;
6809;SDS011;3443;48.812;9.112;2024-02-23T00:26:01;0.50;;;0.20;;
6809;SDS011;3443;48.812;9.112;2024-02-23T00:28:27;1.35;;;0.20;;
6809;SDS011;3443;48.812;9.112;2024-02-23T00:30:53;1.67;;;0.20;;
6809;SDS011;3443;48.812;9.112;2024-02-23T00:33:19;0.10;;;0.10;;
6809;SDS011;3443;48.812;9.112;2024-02-23T00:35:44;0.20;;;0.20;;
6809;SDS011;3443;48.812;9.112;2024-02-23T00:38:10;0.40;;;0.20;;
6809;SDS011;3443;48.812;9.112;2024-02-23T00:40:36;0.93;;;0.20;;
6809;SDS011;3443;48.812;9.112;2024-02-23T00:43:01;1.42;;;0.30;;
6809;SDS011;3443;48.812;9.112;2024-02-23T00:45:28;1.73;;;0.30;;
6809;SDS011;3443;48.812;9.112;2024-02-23T00:47:55;2.67;;;0.30;;
6809;SDS011;3443;48.812;9.112;2024-02-23T00:50:22;1.75;;;0.20;;
6809;SDS011;3443;48.812;9.112;2024-02-23T00:52:48;2.17;;;0.20;;
6809;SDS011;3443;48.812;9.112;2024-02-23T00:55:14;0.77;;;0.30;;
6809;SDS011;3443;48.812;9.112;2024-02-23T00:57:39;0.57;;;0.20;;
6809;SDS011;3443;48.812;9.112;2024-02-23T01:00:05;1.40;;;0.22;;
6809;SDS011;3443;48.812;9.112;2024-02-23T01:02:31;2.67;;;0.30;;
6809;SDS011;3443;48.812;9.112;2024-02-23T01:04:58;0.40;;;0.20;;
6809;SDS011;3443;48.812;9.112;2024-02-23T01:07:24;1.00;;;0.35;;
6809;SDS011;3443;48.812;9.112;2024-02-23T01:09:50;0.30;;;0.20;;
6809;SDS011;3443;48.812;9.112;2024-02-23T01:12:15;2.28;;;0.20;;
6809;SDS011;3443;48.812;9.112;2024-02-23T01:14:41;0.52;;;0.10;;
6809;SDS011;3443;48.812;9.112;2024-02-23T01:17:07;1.35;;;0.20;;
6809;SDS011;3443;48.812;9.112;2024-02-23T01:19:33;0.57;;;0.38;;
6809;SDS011;3443;48.812;9.112;2024-02-23T01:21:58;1.30;;;0.20;;
6809;SDS011;3443;48.812;9.112;2024-02-23T01:24:27;1.13;;;0.20;;
6809;SDS011;3443;48.812;9.112;2024-02-23T01:26:54;0.43;;;0.20;;
6809;SDS011;3443;48.812;9.112;2024-02-23T01:29:20;1.52;;;0.20;;
6809;SDS011;3443;48.812;9.112;2024-02-23T01:31:47;0.22;;;0.20;;
6809;SDS011;3443;48.812;9.112;2024-02-23T01:34:13;1.35;;;0.30;;
6809;SDS011;3443;48.812;9.112;2024-02-23T01:36:39;1.50;;;0.20;;
6809;SDS011;3443;48.812;9.112;2024-02-23T01:39:05;1.30;;;0.20;;
6809;SDS011;3443;48.812;9.112;2024-02-23T01:41:30;0.70;;;0.25;;
6809;SDS011;3443;48.812;9.112;2024-02-23T01:43:57;0.93;;;0.20;;
6809;SDS011;3443;48.812;9.112;2024-02-23T01:46:23;0.52;;;0.30;;
6809;SDS011;3443;48.812;9.112;2024-02-23T01:48:48;1.67;;;0.40;;
6809;SDS011;3443;48.812;9.112;2024-02-23T01:51:14;1.23;;;0.30;;
6809;SDS011;3443;48.812;9.112;2024-02-23T01:53:40;0.20;;;0.20;;
6809;SDS011;3443;48.812;9.112;2024-02-23T01:56:06;0.63;;;0.10;;
6809;SDS011;3443;48.812;9.112;2024-02-23T01:58:33;1.38;;;0.20;;
6809;SDS011;3443;48.812;9.112;2024-02-23T02:01:01;0.88;;;0.30;;
6809;SDS011;3443;48.812;9.112;2024-02-23T02:03:27;0.47;;;0.38;;
6809;SDS011;3443;48.812;9.112;2024-02-23T02:05:53;0.88;;;0.30;;
6809;SDS011;3443;48.812;9.112;2024-02-23T02:08:20;1.23;;;0.20;;
6809;SDS011;3443;48.812;9.112;2024-02-23T02:10:45;1.30;;;0.28;;
6809;SDS011;3443;48.812;9.112;2024-02-23T02:13:12;0.82;;;0.20;;
6809;SDS011;3443;48.812;9.112;2024-02-23T02:15:37;0.32;;;0.20;;
6809;SDS011;3443;48.812;9.112;2024-02-23T02:18:03;1.27;;;0.20;;
6809;SDS011;3443;48.812;9.112;2024-02-23T02:20:31;1.33;;;0.40;;
6809;SDS011;3443;48.812;9.112;2024-02-23T02:22:58;0.35;;;0.20;;
6809;SDS011;3443;48.812;9.112;2024-02-23T02:25:24;0.50;;;0.30;;
6809;SDS011;3443;48.812;9.112;2024-02-23T02:27:49;0.35;;;0.20;;
6809;SDS011;3443;48.812;9.112;2024-02-23T02:30:15;0.52;;;0.30;;
6809;SDS011;3443;48.812;9.112;2024-02-23T02:32:41;1.08;;;0.20;;
6809;SDS011;3443;48.812;9.112;2024-02-23T02:35:06;1.13;;;0.10;;
6809;SDS011;3443;48.812;9.112;2024-02-23T02:37:32;2.25;;;0.15;;
6809;SDS011;3443;48.812;9.112;2024-02-23T02:39:58;0.73;;;0.28;;
6809;SDS011;3443;48.812;9.112;2024-02-23T02:42:23;2.80;;;0.30;;
6809;SDS011;3443;48.812;9.112;2024-02-23T02:44:49;1.80;;;0.20;;
6809;SDS011;3443;48.812;9.112;2024-02-23T02:47:14;0.40;;;0.30;;
6809;SDS011;3443;48.812;9.112;2024-02-23T02:49:40;0.60;;;0.20;;
6809;SDS011;3443;48.812;9.112;2024-02-23T02:52:05;1.52;;;0.10;;
6809;SDS011;3443;48.812;9.112;2024-02-23T02:54:33;0.60;;;0.30;;
6809;SDS011;3443;48.812;9.112;2024-02-23T02:56:59;0.50;;;0.20;;
6809;SDS011;3443;48.812;9.112;2024-02-23T02:59:24;1.27;;;0.35;;
6809;SDS011;3443;48.812;9.112;2024-02-23T03:01:50;0.50;;;0.30;;
6809;SDS011;3443;48.812;9.112;2024-02-23T03:04:15;0.22;;;0.20;;
6809;SDS011;3443;48.812;9.112;2024-02-23T03:06:41;0.47;;;0.20;;
6809;SDS011;3443;48.812;9.112;2024-02-23T03:09:07;1.17;;;0.20;;
6809;SDS011;3443;48.812;9.112;2024-02-23T03:11:32;0.28;;;0.20;;
6809;SDS011;3443;48.812;9.112;2024-02-23T03:13:58;0.20;;;0.20;;
6809;SDS011;3443;48.812;9.112;2024-02-23T03:16:24;2.15;;;0.20;;
6809;SDS011;3443;48.812;9.112;2024-02-23T03:18:54;0.20;;;0.20;;
6809;SDS011;3443;48.812;9.112;2024-02-23T03:21:19;0.50;;;0.20;;
6809;SDS011;3443;48.812;9.112;2024-02-23T03:23:45;0.38;;;0.10;;
6809;SDS011;3443;48.812;9.112;2024-02-23T03:26:11;0.32;;;0.17;;
6809;SDS011;3443;48.812;9.112;2024-02-23T03:28:36;0.55;;;0.20;;
6809;SDS011;3443;48.812;9.112;2024-02-23T03:31:02;0.20;;;0.10;;
6809;SDS011;3443;48.812;9.112;2024-02-23T03:33:27;0.22;;;0.20;;
6809;SDS011;3443;48.812;9.112;2024-02-23T03:35:53;0.65;;;0.20;;
6809;SDS011;3443;48.812;9.112;2024-02-23T03:38:20;0.30;;;0.20;;
6809;SDS011;3443;48.812;9.112;2024-02-23T03:40:46;0.93;;;0.20;;
6809;SDS011;3443;48.812;9.112;2024-02-23T03:43:11;2.03;;;0.20;;
6809;SDS011;3443;48.812;9.112;2024-02-23T03:45:37;0.38;;;0.20;;
6809;SDS011;3443;48.812;9.112;2024-02-23T03:48:03;1.13;;;0.30;;
6809;SDS011;3443;48.812;9.112;2024-02-23T03:50:29;1.80;;;0.22;;
6809;SDS011;3443;48.812;9.112;2024-02-23T03:52:55;1.75;;;0.20;;
6809;SDS011;3443;48.812;9.112;2024-02-23T03:55:21;0.10;;;0.10;;
6809;SDS011;3443;48.812;9.112;2024-02-23T03:57:47;2.17;;;0.20;;
6809;SDS011;3443;48.812;9.112;2024-02-23T04:00:13;0.77;;;0.20;;
6809;SDS011;3443;48.812;9.112;2024-02-23T04:02:39;2.00;;;0.30;;
6809;SDS011;3443;48.812;9.112;2024-02-23T04:05:05;1.42;;;0.32;;
6809;SDS011;3443;48.812;9.112;2024-02-23T04:07:31;1.55;;;0.20;;
6809;SDS011;3443;48.812;9.112;2024-02-23T04:09:56;1.20;;;0.20;;
6809;SDS011;3443;48.812;9.112;2024-02-23T04:12:22;1.77;;;0.30;;
6809;SDS011;3443;48.812;9.112;2024-02-23T04:14:48;1.55;;;0.50;;
6809;SDS011;3443;48.812;9.112;2024-02-23T04:17:14;1.30;;;0.20;;
6809;SDS011;3443;48.812;9.112;2024-02-23T04:19:40;1.17;;;0.30;;
6809;SDS011;3443;48.812;9.112;2024-02-23T04:22:09;0.50;;;0.20;;
6809;SDS011;3443;48.812;9.112;2024-02-23T04:24:36;0.57;;;0.20;;
6809;SDS011;3443;48.812;9.112;2024-02-23T04:27:05;2.30;;;0.28;;
6809;SDS011;3443;48.812;9.112;2024-02-23T04:29:33;0.95;;;0.30;;
6809;SDS011;3443;48.812;9.112;2024-02-23T04:31:59;2.20;;;0.30;;
6809;SDS011;3443;48.812;9.112;2024-02-23T04:34:25;1.25;;;0.20;;
6809;SDS011;3443;48.812;9.112;2024-02-23T04:36:51;0.17;;;0.10;;
6809;SDS011;3443;48.812;9.112;2024-02-23T04:39:16;0.70;;;0.20;;
6809;SDS011;3443;48.812;9.112;2024-02-23T04:41:42;0.57;;;0.20;;
6809;SDS011;3443;48.812;9.112;2024-02-23T04:44:08;0.40;;;0.10;;
6809;SDS011;3443;48.812;9.112;2024-02-23T04:46:33;0.70;;;0.20;;
6809;SDS011;3443;48.812;9.112;2024-02-23T04:48:59;0.13;;;0.13;;
6809;SDS011;3443;48.812;9.112;2024-02-23T04:51:25;0.30;;;0.25;;
6809;SDS011;3443;48.812;9.112;2024-02-23T04:53:51;0.55;;;0.30;;
6809;SDS011;3443;48.812;9.112;2024-02-23T04:56:16;0.30;;;0.30;;
6809;SDS011;3443;48.812;9.112;2024-02-23T04:58:43;1.55;;;0.28;;
6809;SDS011;3443;48.812;9.112;2024-02-23T05:01:09;0.73;;;0.20;;
6809;SDS011;3443;48.812;9.112;2024-02-23T05:03:35;3.50;;;0.38;;
6809;SDS011;3443;48.812;9.112;2024-02-23T05:06:02;1.38;;;0.22;;
6809;SDS011;3443;48.812;9.112;2024-02-23T05:08:28;0.22;;;0.22;;
6809;SDS011;3443;48.812;9.112;2024-02-23T05:10:55;0.57;;;0.25;;
6809;SDS011;3443;48.812;9.112;2024-02-23T05:13:24;0.47;;;0.40;;
6809;SDS011;3443;48.812;9.112;2024-02-23T05:15:49;1.13;;;0.32;;
6809;SDS011;3443;48.812;9.112;2024-02-23T05:18:15;0.50;;;0.30;;
6809;SDS011;3443;48.812;9.112;2024-02-23T05:20:41;1.65;;;0.30;;
6809;SDS011;3443;48.812;9.112;2024-02-23T05:23:06;1.40;;;0.30;;
6809;SDS011;3443;48.812;9.112;2024-02-23T05:25:32;0.90;;;0.30;;
6809;SDS011;3443;48.812;9.112;2024-02-23T05:27:58;0.55;;;0.30;;
6809;SDS011;3443;48.812;9.112;2024-02-23T05:30:23;1.48;;;0.30;;
6809;SDS011;3443;48.812;9.112;2024-02-23T05:32:50;0.20;;;0.20;;
6809;SDS011;3443;48.812;9.112;2024-02-23T05:35:15;0.65;;;0.30;;
6809;SDS011;3443;48.812;9.112;2024-02-23T05:37:41;1.55;;;0.30;;
6809;SDS011;3443;48.812;9.112;2024-02-23T05:40:07;1.05;;;0.55;;
6809;SDS011;3443;48.812;9.112;2024-02-23T05:42:38;0.93;;;0.40;;
6809;SDS011;3443;48.812;9.112;2024-02-23T05:45:04;1.48;;;0.40;;
6809;SDS011;3443;48.812;9.112;2024-02-23T05:47:33;1.25;;;0.30;;
6809;SDS011;3443;48.812;9.112;2024-02-23T05:50:03;0.22;;;0.22;;
6809;SDS011;3443;48.812;9.112;2024-02-23T05:52:33;0.60;;;0.20;;
6809;SDS011;3443;48.812;9.112;2024-02-23T05:54:59;0.52;;;0.30;;
6809;SDS011;3443;48.812;9.112;2024-02-23T05:57:25;1.27;;;0.20;;
6809;SDS011;3443;48.812;9.112;2024-02-23T05:59:52;1.85;;;0.30;;
6809;SDS011;3443;48.812;9.112;2024-02-23T06:02:17;1.23;;;0.30;;
6809;SDS011;3443;48.812;9.112;2024-02-23T06:04:43;1.00;;;0.32;;
6809;SDS011;3443;48.812;9.112;2024-02-23T06:07:09;1.33;;;0.50;;
6809;SDS011;3443;48.812;9.112;2024-02-23T06:09:34;0.55;;;0.30;;
6809;SDS011;3443;48.812;9.112;2024-02-23T06:12:00;0.70;;;0.38;;
6809;SDS011;3443;48.812;9.112;2024-02-23T06:14:25;1.60;;;0.40;;
6809;SDS011;3443;48.812;9.112;2024-02-23T06:16:51;0.30;;;0.30;;
6809;SDS011;3443;48.812;9.112;2024-02-23T06:19:16;0.73;;;0.30;;
6809;SDS011;3443;48.812;9.112;2024-02-23T06:21:42;1.10;;;0.40;;
6809;SDS011;3443;48.812;9.112;2024-02-23T06:24:08;1.65;;;0.20;;
6809;SDS011;3443;48.812;9.112;2024-02-23T06:26:34;0.88;;;0.40;;
6809;SDS011;3443;48.812;9.112;2024-02-23T06:29:00;0.68;;;0.30;;
6809;SDS011;3443;48.812;9.112;2024-02-23T06:31:25;0.32;;;0.30;;
6809;SDS011;3443;48.812;9.112;2024-02-23T06:33:51;0.90;;;0.20;;
6809;SDS011;3443;48.812;9.112;2024-02-23T06:36:17;0.10;;;0.10;;
6809;SDS011;3443;48.812;9.112;2024-02-23T06:38:43;0.85;;;0.30;;
6809;SDS011;3443;48.812;9.112;2024-02-23T06:41:10;1.05;;;0.30;;
6809;SDS011;3443;48.812;9.112;2024-02-23T06:43:36;0.70;;;0.30;;
6809;SDS011;3443;48.812;9.112;2024-02-23T06:46:08;1.23;;;0.25;;
6809;SDS011;3443;48.812;9.112;2024-02-23T06:48:34;1.05;;;0.32;;
6809;SDS011;3443;48.812;9.112;2024-02-23T06:51:01;0.38;;;0.30;;
6809;SDS011;3443;48.812;9.112;2024-02-23T06:53:28;0.30;;;0.20;;
6809;SDS011;3443;48.812;9.112;2024-02-23T06:55:54;0.22;;;0.20;;
6809;SDS011;3443;48.812;9.112;2024-02-23T06:58:20;1.73;;;0.40;;
6809;SDS011;3443;48.812;9.112;2024-02-23T07:00:45;1.27;;;0.40;;
6809;SDS011;3443;48.812;9.112;2024-02-23T07:03:11;2.13;;;0.30;;
6809;SDS011;3443;48.812;9.112;2024-02-23T07:05:37;1.92;;;0.30;;
6809;SDS011;3443;48.812;9.112;2024-02-23T07:08:02;1.10;;;0.50;;
6809;SDS011;3443;48.812;9.112;2024-02-23T07:10:28;0.82;;;0.20;;
6809;SDS011;3443;48.812;9.112;2024-02-23T07:12:54;0.70;;;0.30;;
6809;SDS011;3443;48.812;9.112;2024-02-23T07:15:21;0.63;;;0.28;;
6809;SDS011;3443;48.812;9.112;2024-02-23T07:17:46;0.40;;;0.30;;
6809;SDS011;3443;48.812;9.112;2024-02-23T07:20:12;0.30;;;0.20;;
6809;SDS011;3443;48.812;9.112;2024-02-23T07:22:38;0.93;;;0.52;;
6809;SDS011;3443;48.812;9.112;2024-02-23T07:25:04;0.20;;;0.15;;
6809;SDS011;3443;48.812;9.112;2024-02-23T07:27:30;0.28;;;0.20;;
6809;SDS011;3443;48.812;9.112;2024-02-23T07:29:56;1.13;;;0.30;;
6809;SDS011;3443;48.812;9.112;2024-02-23T07:32:22;1.65;;;0.40;;
6809;SDS011;3443;48.812;9.112;2024-02-23T07:34:48;0.80;;;0.35;;
6809;SDS011;3443;48.812;9.112;2024-02-23T07:37:14;1.40;;;0.32;;
6809;SDS011;3443;48.812;9.112;2024-02-23T07:39:40;0.35;;;0.20;;
6809;SDS011;3443;48.812;9.112;2024-02-23T07:42:05;2.08;;;0.50;;
6809;SDS011;3443;48.812;9.112;2024-02-23T07:44:33;1.63;;;0.40;;
6809;SDS011;3443;48.812;9.112;2024-02-23T07:46:58;1.38;;;0.30;;
6809;SDS011;3443;48.812;9.112;2024-02-23T07:49:24;0.20;;;0.20;;
6809;SDS011;3443;48.812;9.112;2024-02-23T07:51:50;0.98;;;0.40;;
6809;SDS011;3443;48.812;9.112;2024-02-23T07:54:15;0.32;;;0.30;;
6809;SDS011;3443;48.812;9.112;2024-02-23T07:56:41;0.75;;;0.28;;
6809;SDS011;3443;48.812;9.112;2024-02-23T07:59:07;0.90;;;0.30;;
6809;SDS011;3443;48.812;9.112;2024-02-23T08:01:33;0.20;;;0.20;;
6809;SDS011;3443;48.812;9.112;2024-02-23T08:03:59;1.08;;;0.30;;
6809;SDS011;3443;48.812;9.112;2024-02-23T08:06:25;0.43;;;0.20;;
6809;SDS011;3443;48.812;9.112;2024-02-23T08:08:51;0.30;;;0.30;;
6809;SDS011;3443;48.812;9.112;2024-02-23T08:11:18;0.40;;;0.30;;
6809;SDS011;3443;48.812;9.112;2024-02-23T08:13:44;0.60;;;0.50;;
6809;SDS011;3443;48.812;9.112;2024-02-23T08:16:09;0.90;;;0.40;;
6809;SDS011;3443;48.812;9.112;2024-02-23T08:18:35;2.95;;;0.60;;
6809;SDS011;3443;48.812;9.112;2024-02-23T08:21:01;0.50;;;0.40;;
6809;SDS011;3443;48.812;9.112;2024-02-23T08:23:28;0.65;;;0.50;;
6809;SDS011;3443;48.812;9.112;2024-02-23T08:25:54;0.68;;;0.40;;
6809;SDS011;3443;48.812;9.112;2024-02-23T08:28:21;1.25;;;0.50;;
6809;SDS011;3443;48.812;9.112;2024-02-23T08:30:48;0.90;;;0.40;;
6809;SDS011;3443;48.812;9.112;2024-02-23T08:33:13;0.40;;;0.40;;
6809;SDS011;3443;48.812;9.112;2024-02-23T08:35:39;1.27;;;0.30;;
6809;SDS011;3443;48.812;9.112;2024-02-23T08:38:05;2.58;;;0.50;;
6809;SDS011;3443;48.812;9.112;2024-02-23T08:40:30;0.32;;;0.32;;
6809;SDS011;3443;48.812;9.112;2024-02-23T08:42:56;2.10;;;0.60;;
6809;SDS011;3443;48.812;9.112;2024-02-23T08:45:21;1.75;;;0.45;;
6809;SDS011;3443;48.812;9.112;2024-02-23T08:47:47;2.00;;;0.52;;
6809;SDS011;3443;48.812;9.112;2024-02-23T08:50:12;0.43;;;0.30;;
6809;SDS011;3443;48.812;9.112;2024-02-23T08:52:39;1.40;;;0.45;;
6809;SDS011;3443;48.812;9.112;2024-02-23T08:55:05;0.43;;;0.40;;
6809;SDS011;3443;48.812;9.112;2024-02-23T08:57:30;1.52;;;0.50;;
6809;SDS011;3443;48.812;9.112;2024-02-23T08:59:56;1.08;;;0.43;;
6809;SDS011;3443;48.812;9.112;2024-02-23T09:02:23;1.02;;;0.40;;
6809;SDS011;3443;48.812;9.112;2024-02-23T09:04:49;1.70;;;0.57;;
6809;SDS011;3443;48.812;9.112;2024-02-23T09:07:14;1.17;;;0.40;;
6809;SDS011;3443;48.812;9.112;2024-02-23T09:09:40;1.05;;;0.40;;
6809;SDS011;3443;48.812;9.112;2024-02-23T09:12:06;2.40;;;0.50;;
6809;SDS011;3443;48.812;9.112;2024-02-23T09:14:35;0.82;;;0.40;;
6809;SDS011;3443;48.812;9.112;2024-02-23T09:17:02;1.83;;;0.30;;
6809;SDS011;3443;48.812;9.112;2024-02-23T09:19:29;1.70;;;0.60;;
6809;SDS011;3443;48.812;9.112;2024-02-23T09:21:55;0.63;;;0.50;;
6809;SDS011;3443;48.812;9.112;2024-02-23T09:24:20;2.00;;;0.22;;
6809;SDS011;3443;48.812;9.112;2024-02-23T09:26:46;0.60;;;0.40;;
6809;SDS011;3443;48.812;9.112;2024-02-23T09:29:12;0.85;;;0.30;;
6809;SDS011;3443;48.812;9.112;2024-02-23T09:31:38;1.08;;;0.50;;
6809;SDS011;3443;48.812;9.112;2024-02-23T09:34:04;1.75;;;0.40;;
6809;SDS011;3443;48.812;9.112;2024-02-23T09:36:29;3.47;;;0.55;;
6809;SDS011;3443;48.812;9.112;2024-02-23T09:38:55;0.40;;;0.30;;
6809;SDS011;3443;48.812;9.112;2024-02-23T09:41:21;1.60;;;0.40;;
6809;SDS011;3443;48.812;9.112;2024-02-23T09:43:48;1.48;;;0.40;;
6809;SDS011;3443;48.812;9.112;2024-02-23T09:46:15;1.25;;;0.70;;
6809;SDS011;3443;48.812;9.112;2024-02-23T09:48:44;3.60;;;0.52;;
6809;SDS011;3443;48.812;9.112;2024-02-23T09:51:10;1.10;;;0.32;;
6809;SDS011;3443;48.812;9.112;2024-02-23T09:53:38;2.20;;;0.50;;
6809;SDS011;3443;48.812;9.112;2024-02-23T09:56:04;2.40;;;0.47;;
6809;SDS011;3443;48.812;9.112;2024-02-23T09:58:31;0.47;;;0.22;;
6809;SDS011;3443;48.812;9.112;2024-02-23T10:00:58;2.20;;;0.38;;
6809;SDS011;3443;48.812;9.112;2024-02-23T10:03:24;2.70;;;0.40;;
6809;SDS011;3443;48.812;9.112;2024-02-23T10:05:53;1.55;;;0.40;;
6809;SDS011;3443;48.812;9.112;2024-02-23T10:08:19;0.50;;;0.28;;
6809;SDS011;3443;48.812;9.112;2024-02-23T10:10:45;1.33;;;0.40;;
6809;SDS011;3443;48.812;9.112;2024-02-23T10:13:12;2.38;;;0.40;;
6809;SDS011;3443;48.812;9.112;2024-02-23T10:15:37;0.60;;;0.32;;
6809;SDS011;3443;48.812;9.112;2024-02-23T10:18:06;2.05;;;0.50;;
6809;SDS011;3443;48.812;9.112;2024-02-23T10:20:32;2.92;;;0.90;;
6809;SDS011;3443;48.812;9.112;2024-02-23T10:22:57;0.60;;;0.40;;
6809;SDS011;3443;48.812;9.112;2024-02-23T10:25:23;2.15;;;0.43;;
6809;SDS011;3443;48.812;9.112;2024-02-23T10:27:48;1.65;;;0.40;;
6809;SDS011;3443;48.812;9.112;2024-02-23T10:30:14;0.73;;;0.32;;
6809;SDS011;3443;48.812;9.112;2024-02-23T10:32:40;0.68;;;0.50;;
6809;SDS011;3443;48.812;9.112;2024-02-23T10:35:25;0.77;;;0.30;;
6809;SDS011;3443;48.812;9.112;2024-02-23T10:37:55;0.95;;;0.50;;
6809;SDS011;3443;48.812;9.112;2024-02-23T10:40:21;4.55;;;0.90;;
6809;SDS011;3443;48.812;9.112;2024-02-23T10:42:51;1.25;;;0.47;;
6809;SDS011;3443;48.812;9.112;2024-02-23T10:45:21;0.82;;;0.52;;
6809;SDS011;3443;48.812;9.112;2024-02-23T10:47:47;0.47;;;0.20;;
6809;SDS011;3443;48.812;9.112;2024-02-23T10:50:14;1.45;;;0.50;;
6809;SDS011;3443;48.812;9.112;2024-02-23T10:52:41;2.08;;;0.50;;
6809;SDS011;3443;48.812;9.112;2024-02-23T10:55:10;2.70;;;0.57;;
6809;SDS011;3443;48.812;9.112;2024-02-23T10:57:36;2.92;;;0.40;;
6809;SDS011;3443;48.812;9.112;2024-02-23T11:00:02;3.92;;;0.90;;
6809;SDS011;3443;48.812;9.112;2024-02-23T11:02:31;1.20;;;0.40;;
6809;SDS011;3443;48.812;9.112;2024-02-23T11:04:58;2.58;;;0.68;;
6809;SDS011;3443;48.812;9.112;2024-02-23T11:07:24;3.33;;;0.88;;
6809;SDS011;3443;48.812;9.112;2024-02-23T11:09:59;2.83;;;0.60;;
6809;SDS011;3443;48.812;9.112;2024-02-23T11:12:26;1.45;;;0.50;;
6809;SDS011;3443;48.812;9.112;2024-02-23T11:14:57;2.60;;;0.55;;
6809;SDS011;3443;48.812;9.112;2024-02-23T11:17:26;2.05;;;0.30;;
6809;SDS011;3443;48.812;9.112;2024-02-23T11:19:54;1.92;;;0.80;;
6809;SDS011;3443;48.812;9.112;2024-02-23T11:22:24;1.17;;;0.50;;
6809;SDS011;3443;48.812;9.112;2024-02-23T11:24:51;2.00;;;0.50;;
6809;SDS011;3443;48.812;9.112;2024-02-23T11:27:17;3.50;;;0.60;;
6809;SDS011;3443;48.812;9.112;2024-02-23T11:29:46;0.90;;;0.30;;
6809;SDS011;3443;48.812;9.112;2024-02-23T11:32:14;1.20;;;0.40;;
6809;SDS011;3443;48.812;9.112;2024-02-23T11:34:41;1.85;;;0.50;;
6809;SDS011;3443;48.812;9.112;2024-02-23T11:37:07;1.85;;;0.75;;
6809;SDS011;3443;48.812;9.112;2024-02-23T11:39:39;1.63;;;0.50;;
6809;SDS011;3443;48.812;9.112;2024-02-23T11:42:07;1.65;;;0.57;;
6809;SDS011;3443;48.812;9.112;2024-02-23T11:44:34;2.50;;;0.40;;
6809;SDS011;3443;48.812;9.112;2024-02-23T11:46:59;3.53;;;0.75;;
6809;SDS011;3443;48.812;9.112;2024-02-23T11:49:28;1.85;;;0.50;;
6809;SDS011;3443;48.812;9.112;2024-02-23T11:51:54;2.40;;;0.40;;
6809;SDS011;3443;48.812;9.112;2024-02-23T11:54:20;1.95;;;0.47;;
6809;SDS011;3443;48.812;9.112;2024-02-23T11:56:47;3.53;;;0.55;;
6809;SDS011;3443;48.812;9.112;2024-02-23T11:59:14;3.25;;;0.63;;
6809;SDS011;3443;48.812;9.112;2024-02-23T12:01:41;0.50;;;0.40;;
6809;SDS011;3443;48.812;9.112;2024-02-23T12:04:06;0.73;;;0.40;;
6809;SDS011;3443;48.812;9.112;2024-02-23T12:06:33;2.88;;;0.50;;
6809;SDS011;3443;48.812;9.112;2024-02-23T12:08:59;1.67;;;0.70;;
6809;SDS011;3443;48.812;9.112;2024-02-23T12:11:25;1.70;;;0.47;;
6809;SDS011;3443;48.812;9.112;2024-02-23T12:13:52;4.60;;;0.45;;
6809;SDS011;3443;48.812;9.112;2024-02-23T12:16:18;2.97;;;0.70;;
6809;SDS011;3443;48.812;9.112;2024-02-23T12:18:45;2.22;;;0.80;;
6809;SDS011;3443;48.812;9.112;2024-02-23T12:21:19;2.33;;;0.60;;
6809;SDS011;3443;48.812;9.112;2024-02-23T12:23:45;1.23;;;0.55;;
6809;SDS011;3443;48.812;9.112;2024-02-23T12:26:13;3.10;;;0.50;;
6809;SDS011;3443;48.812;9.112;2024-02-23T12:28:40;1.17;;;0.40;;
6809;SDS011;3443;48.812;9.112;2024-02-23T12:31:06;1.10;;;0.65;;
6809;SDS011;3443;48.812;9.112;2024-02-23T12:33:32;3.00;;;0.65;;
6809;SDS011;3443;48.812;9.112;2024-02-23T12:35:59;2.25;;;0.70;;
6809;SDS011;3443;48.812;9.112;2024-02-23T12:38:26;5.07;;;0.65;;
6809;SDS011;3443;48.812;9.112;2024-02-23T12:40:51;1.15;;;0.63;;
6809;SDS011;3443;48.812;9.112;2024-02-23T12:43:17;1.52;;;0.57;;
6809;SDS011;3443;48.812;9.112;2024-02-23T12:45:46;2.15;;;0.40;;
6809;SDS011;3443;48.812;9.112;2024-02-23T12:48:15;4.30;;;0.70;;
6809;SDS011;3443;48.812;9.112;2024-02-23T12:50:41;3.15;;;0.60;;
6809;SDS011;3443;48.812;9.112;2024-02-23T12:53:08;1.33;;;0.43;;
6809;SDS011;3443;48.812;9.112;2024-02-23T12:55:34;0.73;;;0.40;;
6809;SDS011;3443;48.812;9.112;2024-02-23T12:58:01;1.50;;;0.75;;
6809;SDS011;3443;48.812;9.112;2024-02-23T13:00:27;2.25;;;0.70;;
6809;SDS011;3443;48.812;9.112;2024-02-23T13:02:53;1.30;;;0.40;;
6809;SDS011;3443;48.812;9.112;2024-02-23T13:05:19;1.25;;;0.40;;
6809;SDS011;3443;48.812;9.112;2024-02-23T13:07:45;3.50;;;0.80;;
6809;SDS011;3443;48.812;9.112;2024-02-23T13:10:11;1.40;;;0.47;;
6809;SDS011;3443;48.812;9.112;2024-02-23T13:12:36;1.15;;;0.60;;
6809;SDS011;3443;48.812;9.112;2024-02-23T13:15:02;1.38;;;0.60;;
6809;SDS011;3443;48.812;9.112;2024-02-23T13:17:27;2.30;;;0.82;;
6809;SDS011;3443;48.812;9.112;2024-02-23T13:19:53;2.58;;;0.80;;
6809;SDS011;3443;48.812;9.112;2024-02-23T13:22:19;2.63;;;0.60;;
6809;SDS011;3443;48.812;9.112;2024-02-23T13:24:45;3.97;;;0.60;;
6809;SDS011;3443;48.812;9.112;2024-02-23T13:27:10;2.92;;;0.60;;
6809;SDS011;3443;48.812;9.112;2024-02-23T13:29:37;4.40;;;0.80;;
6809;SDS011;3443;48.812;9.112;2024-02-23T13:32:04;0.57;;;0.57;;
6809;SDS011;3443;48.812;9.112;2024-02-23T13:34:30;3.25;;;0.80;;
6809;SDS011;3443;48.812;9.112;2024-02-23T13:36:56;1.27;;;0.60;;
6809;SDS011;3443;48.812;9.112;2024-02-23T13:39:21;5.65;;;0.95;;
6809;SDS011;3443;48.812;9.112;2024-02-23T13:41:47;1.85;;;0.57;;
6809;SDS011;3443;48.812;9.112;2024-02-23T13:44:12;1.98;;;0.60;;
6809;SDS011;3443;48.812;9.112;2024-02-23T13:46:38;2.42;;;0.80;;
6809;SDS011;3443;48.812;9.112;2024-02-23T13:49:04;3.55;;;0.80;;
6809;SDS011;3443;48.812;9.112;2024-02-23T13:51:34;1.73;;;0.70;;
6809;SDS011;3443;48.812;9.112;2024-02-23T13:54:00;4.18;;;0.80;;
6809;SDS011;3443;48.812;9.112;2024-02-23T13:56:25;3.15;;;0.80;;
6809;SDS011;3443;48.812;9.112;2024-02-23T13:58:51;2.83;;;0.65;;
6809;SDS011;3443;48.812;9.112;2024-02-23T14:01:17;2.90;;;0.80;;
6809;SDS011;3443;48.812;9.112;2024-02-23T14:03:42;0.98;;;0.70;;
6809;SDS011;3443;48.812;9.112;2024-02-23T14:06:08;1.60;;;0.55;;
6809;SDS011;3443;48.812;9.112;2024-02-23T14:08:34;1.55;;;0.50;;
6809;SDS011;3443;48.812;9.112;2024-02-23T14:11:02;4.43;;;1.30;;
6809;SDS011;3443;48.812;9.112;2024-02-23T14:13:30;3.30;;;0.93;;
6809;SDS011;3443;48.812;9.112;2024-02-23T14:15:57;1.95;;;0.75;;
6809;SDS011;3443;48.812;9.112;2024-02-23T14:18:23;2.70;;;0.82;;
6809;SDS011;3443;48.812;9.112;2024-02-23T14:20:49;3.00;;;0.98;;
6809;SDS011;3443;48.812;9.112;2024-02-23T14:23:14;1.65;;;0.60;;
6809;SDS011;3443;48.812;9.112;2024-02-23T14:25:40;1.73;;;0.93;;
6809;SDS011;3443;48.812;9.112;2024-02-23T14:28:06;2.03;;;0.95;;
6809;SDS011;3443;48.812;9.112;2024-02-23T14:30:31;2.08;;;0.90;;
6809;SDS011;3443;48.812;9.112;2024-02-23T14:32:57;3.97;;;0.77;;
6809;SDS011;3443;48.812;9.112;2024-02-23T14:35:22;2.83;;;0.60;;
6809;SDS011;3443;48.812;9.112;2024-02-23T14:37:48;2.38;;;0.60;;
6809;SDS011;3443;48.812;9.112;2024-02-23T14:40:13;2.80;;;0.95;;
6809;SDS011;3443;48.812;9.112;2024-02-23T14:42:40;4.25;;;0.80;;
6809;SDS011;3443;48.812;9.112;2024-02-23T14:45:06;2.10;;;0.73;;
6809;SDS011;3443;48.812;9.112;2024-02-23T14:47:32;2.90;;;0.85;;
6809;SDS011;3443;48.812;9.112;2024-02-23T14:49:59;4.72;;;0.57;;
6809;SDS011;3443;48.812;9.112;2024-02-23T14:52:24;3.28;;;0.75;;
6809;SDS011;3443;48.812;9.112;2024-02-23T14:54:50;2.78;;;0.80;;
6809;SDS011;3443;48.812;9.112;2024-02-23T14:57:16;2.30;;;0.65;;
6809;SDS011;3443;48.812;9.112;2024-02-23T14:59:41;3.17;;;0.63;;
6809;SDS011;3443;48.812;9.112;2024-02-23T15:02:13;2.63;;;0.70;;
6809;SDS011;3443;48.812;9.112;2024-02-23T15:04:44;2.60;;;0.70;;
6809;SDS011;3443;48.812;9.112;2024-02-23T15:07:09;3.17;;;0.50;;
6809;SDS011;3443;48.812;9.112;2024-02-23T15:09:35;1.98;;;0.60;;